Time;durP1;ratioP1;P1;durP2;ratioP2;P2;SDS_P1;SDS_P2;PMS_P1;PMS_P2;Temp;Humidity;BMP_temperature;BMP_pressure;BME280_temperature;BME280_humidity;BME280_pressure;Samples;Min_cycle;Max_cycle;Signal;HPM_P1;HPM_P2
2022/03/08 00:01:20;;;;;;;16.15;11.85;;;-4.00;99.90;;;;;;4969423;28;20029;-57
2022/03/08 00:03:51;;;;;;;14.77;11.20;;;-4.00;99.90;;;;;;4965470;28;20031;-58
2022/03/08 00:06:25;;;;;;;20.60;11.07;;;-4.00;99.90;;;;;;4968825;28;20177;-56
2022/03/08 00:09:16;;;;;;;18.38;11.60;;;-3.90;99.90;;;;;;4962140;28;20031;-57
2022/03/08 00:11:47;;;;;;;14.50;10.18;;;-3.90;99.90;;;;;;4975512;28;20030;-59
2022/03/08 00:14:21;;;;;;;11.93;8.90;;;-3.90;99.90;;;;;;4970320;28;20037;-55
2022/03/08 00:16:52;;;;;;;11.65;9.95;;;-3.80;99.90;;;;;;4961526;28;20027;-56
2022/03/08 00:19:21;;;;;;;16.45;11.27;;;-3.80;99.90;;;;;;4973925;28;20121;-58
2022/03/08 00:21:50;;;;;;;14.73;10.45;;;-3.80;99.90;;;;;;4971094;28;20070;-56
2022/03/08 00:24:29;;;;;;;15.45;11.05;;;-3.90;99.90;;;;;;4973869;28;20034;-57
2022/03/08 00:27:00;;;;;;;16.05;10.70;;;-3.90;99.90;;;;;;4961548;28;20150;-56
2022/03/08 00:29:31;;;;;;;14.80;11.23;;;-3.90;99.90;;;;;;4981549;28;20085;-57
2022/03/08 00:32:03;;;;;;;23.00;12.57;;;-3.90;99.90;;;;;;4936883;29;20035;-57
2022/03/08 00:34:50;;;;;;;20.33;13.18;;;-4.00;99.90;;;;;;4988284;28;20030;-56
2022/03/08 00:37:29;;;;;;;18.92;12.93;;;-4.00;99.90;;;;;;4973063;28;20042;-57
2022/03/08 00:43:02;;;;;;;25.38;15.45;;;-4.10;99.90;;;;;;4951169;28;20040;-57
2022/03/08 00:45:51;;;;;;;35.13;23.23;;;-4.10;99.90;;;;;;4949798;28;20106;-59
2022/03/08 00:48:29;;;;;;;69.13;43.15;;;-4.10;99.90;;;;;;4941182;28;20070;-56
2022/03/08 00:51:05;;;;;;;38.17;21.08;;;-4.10;99.90;;;;;;4946946;28;20037;-56
2022/03/08 00:53:34;;;;;;;17.02;13.52;;;-4.10;99.90;;;;;;4970586;28;20019;-58
2022/03/08 00:56:05;;;;;;;17.73;13.70;;;-4.10;99.90;;;;;;4951747;28;20023;-56
2022/03/08 00:58:56;;;;;;;47.78;29.80;;;-4.10;99.90;;;;;;4948600;28;20123;-56
2022/03/08 01:01:30;;;;;;;23.88;14.50;;;-4.10;99.90;;;;;;4967678;28;20035;-57
2022/03/08 01:04:04;;;;;;;17.83;13.32;;;-4.10;99.90;;;;;;4962982;28;20418;-58
2022/03/08 01:06:32;;;;;;;22.33;12.73;;;-4.10;99.90;;;;;;4955367;28;20081;-58
2022/03/08 01:09:14;;;;;;;13.45;9.70;;;-4.10;99.90;;;;;;4947861;28;20066;-56
2022/03/08 01:11:42;;;;;;;13.20;11.25;;;-4.10;99.90;;;;;;4942462;28;20033;-58
2022/03/08 01:14:16;;;;;;;18.92;9.38;;;-4.00;99.90;;;;;;4977708;28;20102;-57
2022/03/08 01:16:48;;;;;;;15.32;10.77;;;-4.10;99.90;;;;;;4947601;28;20032;-56
2022/03/08 01:19:14;;;;;;;11.55;9.32;;;-4.00;99.90;;;;;;4967409;28;20034;-59
2022/03/08 01:21:57;;;;;;;12.38;9.82;;;-4.00;99.90;;;;;;4952505;28;20038;-57
2022/03/08 01:24:42;;;;;;;16.73;11.68;;;-4.00;99.90;;;;;;4948116;28;20035;-56
2022/03/08 01:27:14;;;;;;;12.55;9.07;;;-4.00;99.90;;;;;;4941932;28;20035;-57
2022/03/08 01:29:45;;;;;;;14.82;10.02;;;-4.00;99.90;;;;;;4949473;28;20030;-59
2022/03/08 01:32:13;;;;;;;;;;;-4.00;99.90;;;;;;4951085;28;20032;-56
2022/03/08 01:34:52;;;;;;;16.75;11.68;;;-4.10;99.90;;;;;;4948912;28;19921;-56
2022/03/08 01:37:20;;;;;;;20.58;10.45;;;-4.10;99.90;;;;;;4946569;28;20036;-59
2022/03/08 01:40:05;;;;;;;;;;;;;;;;;;;;;
2022/03/08 01:42:52;;;;;;;12.88;10.43;;;-4.10;99.90;;;;;;4958623;28;20038;-56
2022/03/08 01:45:27;;;;;;;15.45;11.48;;;-4.10;99.90;;;;;;4957286;28;20120;-58
2022/03/08 01:48:07;;;;;;;16.10;10.95;;;-4.10;99.90;;;;;;4966856;28;20557;-59
2022/03/08 01:50:41;;;;;;;17.92;11.32;;;-4.10;99.90;;;;;;4974636;28;20019;-56
2022/03/08 01:53:32;;;;;;;16.20;10.80;;;-4.10;99.90;;;;;;4953081;28;20106;-56
2022/03/08 01:56:03;;;;;;;12.60;11.00;;;-4.10;99.90;;;;;;4976808;28;20039;-56
2022/03/08 01:58:35;;;;;;;18.23;11.25;;;-4.10;99.90;;;;;;4956074;28;20403;-57
2022/03/08 02:01:03;;;;;;;21.38;12.07;;;-4.20;99.90;;;;;;4943563;28;20123;-59
2022/03/08 02:03:52;;;;;;;13.32;10.70;;;-4.20;99.90;;;;;;4950969;28;20038;-56
2022/03/08 02:06:32;;;;;;;14.20;11.20;;;-4.20;99.90;;;;;;4960055;28;20088;-57
2022/03/08 02:09:03;;;;;;;14.48;10.73;;;-4.30;99.90;;;;;;4974646;28;20030;-57
2022/03/08 02:11:33;;;;;;;19.75;10.45;;;-4.30;99.90;;;;;;4981960;28;20038;-57
2022/03/08 02:14:14;;;;;;;13.10;10.73;;;-4.40;99.90;;;;;;4960549;28;20039;-59
2022/03/08 02:16:42;;;;;;;;;;;-4.40;99.90;;;;;;4971132;28;20031;-57
2022/03/08 02:19:16;;;;;;;15.63;10.07;;;-4.50;99.90;;;;;;4971609;28;19997;-55
2022/03/08 02:21:59;;;;;;;21.17;10.82;;;-4.50;99.90;;;;;;4980166;28;20029;-57
2022/03/08 02:24:30;;;;;;;13.45;10.10;;;-4.60;99.90;;;;;;4980064;28;20076;-58
2022/03/08 02:27:01;;;;;;;18.45;12.27;;;-4.70;99.90;;;;;;4984006;28;20408;-59
2022/03/08 02:29:50;;;;;;;16.33;12.48;;;-4.70;99.90;;;;;;4994904;28;20027;-58
2022/03/08 02:32:30;;;;;;;19.38;12.75;;;-4.80;99.90;;;;;;4959447;28;20125;-59
2022/03/08 02:35:13;;;;;;;18.13;12.05;;;-4.80;99.90;;;;;;4970561;28;20031;-57
2022/03/08 02:37:52;;;;;;;22.48;12.82;;;-4.80;99.90;;;;;;4970787;28;20030;-57
2022/03/08 02:40:27;;;;;;;18.27;12.27;;;-4.70;99.90;;;;;;4990062;28;20049;-57
2022/03/08 02:42:57;;;;;;;21.23;13.57;;;-4.80;99.90;;;;;;4970459;28;20525;-58
2022/03/08 02:45:29;;;;;;;23.00;12.60;;;-4.80;99.90;;;;;;4970183;28;20509;-58
2022/03/08 02:48:20;;;;;;;22.70;13.25;;;-4.80;99.90;;;;;;4969730;28;20077;-57
2022/03/08 02:50:46;;;;;;;23.10;13.45;;;-4.80;99.90;;;;;;4970920;28;20439;-57
2022/03/08 02:53:14;;;;;;;28.80;14.85;;;-4.80;99.90;;;;;;4970524;28;20062;-57
2022/03/08 02:55:46;;;;;;;19.58;13.73;;;-4.80;99.90;;;;;;4963553;28;20042;-56
2022/03/08 02:58:17;;;;;;;18.25;11.25;;;-4.80;99.90;;;;;;4987794;28;20038;-57
2022/03/08 03:00:49;;;;;;;16.60;12.90;;;-4.90;99.90;;;;;;4973156;28;20101;-56
2022/03/08 03:03:17;;;;;;;18.75;11.45;;;-5.00;99.90;;;;;;4969899;28;20077;-58
2022/03/08 03:05:46;;;;;;;20.73;12.18;;;-5.00;99.90;;;;;;4969723;28;20490;-58
2022/03/08 03:08:20;;;;;;;19.15;12.07;;;-5.00;99.90;;;;;;4970814;28;20050;-58
2022/03/08 03:10:58;;;;;;;16.35;11.68;;;-5.10;99.90;;;;;;4991868;28;20038;-57
2022/03/08 03:13:27;;;;;;;17.38;11.07;;;-5.10;99.90;;;;;;4971258;28;20039;-58
2022/03/08 03:16:16;;;;;;;13.57;11.35;;;-5.20;99.90;;;;;;4969167;28;20069;-57
2022/03/08 03:18:45;;;;;;;16.08;11.30;;;-5.20;99.90;;;;;;4978952;28;20053;-59
2022/03/08 03:21:22;;;;;;;14.93;11.02;;;-5.20;99.90;;;;;;4983562;28;20033;-59
2022/03/08 03:23:50;;;;;;;14.52;11.05;;;-5.30;99.90;;;;;;4987758;28;20112;-57
2022/03/08 03:26:24;;;;;;;17.70;12.02;;;-5.30;99.90;;;;;;4970686;28;20624;-58
2022/03/08 03:28:55;;;;;;;17.63;12.23;;;-5.30;99.90;;;;;;4969448;28;20030;-57
2022/03/08 03:31:31;;;;;;;17.00;12.10;;;-5.30;99.90;;;;;;4969106;28;20121;-55
2022/03/08 03:34:02;;;;;;;17.58;12.68;;;-5.30;99.90;;;;;;4969629;28;20027;-57
2022/03/08 03:36:36;;;;;;;18.60;13.05;;;-5.30;99.90;;;;;;4969813;28;20043;-58
2022/03/08 03:39:07;;;;;;;18.63;13.55;;;-5.30;99.90;;;;;;4969960;28;20109;-58
2022/03/08 03:41:36;;;;;;;20.77;13.20;;;-5.20;99.90;;;;;;4968537;28;20057;-56
2022/03/08 03:44:19;;;;;;;;;;;;;;;;;;;;;
2022/03/08 03:46:48;;;;;;;20.10;12.95;;;-5.20;99.90;;;;;;4992405;28;20030;-59
2022/03/08 03:49:32;;;;;;;15.98;12.35;;;-5.20;99.90;;;;;;4987578;28;20861;-57
2022/03/08 03:52:13;;;;;;;90.78;42.35;;;-5.20;99.90;;;;;;4968454;28;20027;-58
2022/03/08 03:54:48;;;;;;;30.25;16.83;;;-5.20;99.90;;;;;;4970643;28;20035;-58
2022/03/08 03:57:24;;;;;;;24.13;14.77;;;-5.30;99.90;;;;;;4970926;28;20044;-59
2022/03/08 04:00:04;;;;;;;21.00;13.40;;;-5.30;99.90;;;;;;4982377;28;20047;-57
2022/03/08 04:02:31;;;;;;;19.88;14.68;;;-5.30;99.90;;;;;;4990459;28;20015;-56
2022/03/08 04:05:10;;;;;;;15.90;12.63;;;-5.40;99.90;;;;;;4969819;28;20157;-56
2022/03/08 04:07:52;;;;;;;22.17;14.35;;;-5.40;99.90;;;;;;4969153;28;20034;-57
2022/03/08 04:10:41;;;;;;;21.30;14.02;;;-5.40;99.90;;;;;;4987659;28;20026;-58
2022/03/08 04:13:14;;;;;;;21.88;13.85;;;-5.40;99.90;;;;;;4969184;28;20027;-57
2022/03/08 04:15:46;;;;;;;26.67;15.73;;;-5.50;99.90;;;;;;4968203;28;20058;-58
2022/03/08 04:18:34;;;;;;;21.60;13.85;;;-5.50;99.90;;;;;;4969502;28;20034;-58
2022/03/08 04:21:06;;;;;;;31.83;19.60;;;-5.50;99.90;;;;;;4982141;28;20065;-57
2022/03/08 04:23:37;;;;;;;21.65;14.07;;;-5.50;99.90;;;;;;4970257;28;20026;-58
2022/03/08 04:26:08;;;;;;;94.45;44.58;;;-5.50;99.90;;;;;;4968096;28;20058;-57
2022/03/08 04:28:37;;;;;;;88.00;40.92;;;-5.50;99.90;;;;;;4991229;28;20030;-57
2022/03/08 04:31:08;;;;;;;50.80;25.65;;;-5.60;99.90;;;;;;4967864;28;20059;-56
2022/03/08 04:33:34;;;;;;;;;;;-5.50;99.90;;;;;;4976621;28;20061;-57
2022/03/08 04:36:08;;;;;;;24.17;16.45;;;-5.60;99.90;;;;;;4974390;28;19949;-57
2022/03/08 04:38:55;;;;;;;28.85;18.58;;;-5.60;99.90;;;;;;4968605;28;20157;-55
2022/03/08 04:41:29;;;;;;;32.65;18.40;;;-5.70;99.90;;;;;;4968495;28;20119;-58
2022/03/08 04:43:55;;;;;;;50.83;24.58;;;-5.70;99.90;;;;;;4958564;28;20090;-57
2022/03/08 04:46:30;;;;;;;35.15;20.33;;;-5.70;99.90;;;;;;4968395;28;20090;-58
2022/03/08 04:49:08;;;;;;;26.33;16.95;;;-5.70;99.90;;;;;;4981662;28;20041;-55
2022/03/08 04:51:41;;;;;;;22.33;17.10;;;-5.70;99.90;;;;;;4972358;28;20510;-57
2022/03/08 04:54:11;;;;;;;32.33;19.45;;;-5.70;99.90;;;;;;4968963;28;20034;-57
2022/03/08 04:57:09;;;;;;;31.67;18.25;;;-5.70;99.90;;;;;;4960068;28;20034;-56
2022/03/08 04:59:50;;;;;;;45.05;19.67;;;-5.70;99.90;;;;;;4989712;28;20027;-56
2022/03/08 05:02:25;;;;;;;27.00;17.63;;;-5.80;99.90;;;;;;4967392;28;20110;-58
2022/03/08 05:05:00;;;;;;;29.50;18.27;;;-5.80;99.90;;;;;;4974122;28;20034;-56
2022/03/08 05:07:26;;;;;;;38.47;18.77;;;-5.80;99.90;;;;;;4967284;28;20434;-58
2022/03/08 05:09:55;;;;;;;26.15;17.50;;;-5.70;99.90;;;;;;4981069;28;20381;-57
2022/03/08 05:12:40;;;;;;;26.98;15.13;;;-5.80;99.90;;;;;;4981252;28;20085;-57
2022/03/08 05:15:15;;;;;;;19.30;13.35;;;-5.80;99.90;;;;;;4983245;28;20034;-57
2022/03/08 05:17:53;;;;;;;24.70;14.02;;;-5.90;99.90;;;;;;4963694;28;20084;-58
2022/03/08 05:20:19;;;;;;;19.50;13.50;;;-5.90;99.90;;;;;;4999128;28;20029;-56
2022/03/08 05:22:50;;;;;;;20.30;12.68;;;-5.90;99.90;;;;;;4965257;28;20031;-59
2022/03/08 05:25:33;;;;;;;19.05;13.77;;;-6.00;99.90;;;;;;4972132;28;20104;-58
2022/03/08 05:28:09;;;;;;;22.20;12.90;;;-6.00;99.90;;;;;;4986745;28;20045;-56
2022/03/08 05:30:45;;;;;;;28.45;13.63;;;-6.00;99.90;;;;;;4977344;28;20035;-58
2022/03/08 05:33:11;;;;;;;20.50;13.25;;;-6.00;99.90;;;;;;4973424;28;20625;-55
2022/03/08 05:35:53;;;;;;;22.38;14.07;;;-6.00;99.90;;;;;;4992368;28;20031;-58
2022/03/08 05:38:22;;;;;;;20.77;14.05;;;-5.90;99.90;;;;;;4972792;28;20061;-56
2022/03/08 05:41:07;;;;;;;;;;;;;;;;;;;;;
2022/03/08 05:43:38;;;;;;;17.40;12.23;;;-5.90;99.90;;;;;;4971709;28;20490;-58
2022/03/08 05:46:10;;;;;;;23.38;14.32;;;-5.90;99.90;;;;;;4971575;28;20483;-56
2022/03/08 05:48:36;;;;;;;23.92;15.55;;;-5.90;99.90;;;;;;4971227;28;20110;-58
2022/03/08 05:51:10;;;;;;;32.35;16.48;;;-6.00;99.90;;;;;;4970637;28;20030;-57
2022/03/08 05:53:49;;;;;;;43.75;16.35;;;-6.00;99.90;;;;;;4992360;28;20019;-57
2022/03/08 05:56:15;;;;;;;40.95;15.80;;;-6.00;99.90;;;;;;4972621;28;20069;-55
2022/03/08 05:58:43;;;;;;;32.22;15.77;;;-6.00;99.90;;;;;;4964734;28;20042;-56
2022/03/08 06:01:16;;;;;;;35.95;17.92;;;-6.00;99.90;;;;;;4970180;28;20039;-57
2022/03/08 06:03:45;;;;;;;27.05;15.95;;;-5.90;99.90;;;;;;4970617;28;20023;-56
2022/03/08 06:06:14;;;;;;;38.90;16.08;;;-5.90;99.90;;;;;;4966993;28;20026;-57
2022/03/08 06:08:56;;;;;;;30.08;14.85;;;-5.80;99.90;;;;;;4974294;28;20378;-55
2022/03/08 06:11:21;;;;;;;33.72;15.25;;;-5.70;99.90;;;;;;5001784;28;20106;-58
2022/03/08 06:13:59;;;;;;;30.98;16.20;;;-5.70;99.90;;;;;;4970578;28;20453;-56
2022/03/08 06:16:38;;;;;;;23.75;14.90;;;-5.50;99.90;;;;;;4969741;28;20038;-58
2022/03/08 06:19:07;;;;;;;23.38;13.75;;;-5.00;99.90;;;;;;4970652;28;20505;-56
2022/03/08 06:21:36;;;;;;;15.50;11.85;;;-4.00;99.90;;;;;;4970559;28;20038;-58
2022/03/08 06:24:02;;;;;;;14.02;9.30;;;-3.00;99.90;;;;;;4970162;28;20030;-57
2022/03/08 06:26:32;;;;;;;9.95;8.07;;;-1.90;99.90;;;;;;4972372;28;20027;-57
2022/03/08 06:29:17;;;;;;;;;;;;;;;;;;;;;
2022/03/08 06:31:48;;;;;;;9.38;7.40;;;0.40;99.90;;;;;;4970569;28;20037;-59
2022/03/08 06:34:25;;;;;;;7.88;7.10;;;1.60;99.90;;;;;;4974096;28;20477;-58
2022/03/08 06:36:54;;;;;;;8.38;6.40;;;2.90;99.90;;;;;;4970711;28;20034;-59
2022/03/08 06:39:32;;;;;;;8.25;6.97;;;3.80;99.90;;;;;;4970260;28;20030;-56
2022/03/08 06:41:57;;;;;;;11.60;7.43;;;4.80;99.90;;;;;;4970585;28;20042;-56
2022/03/08 06:44:23;;;;;;;7.28;6.57;;;5.40;99.90;;;;;;4971446;28;20034;-56
2022/03/08 06:46:49;;;;;;;8.43;7.45;;;5.90;99.30;;;;;;4971520;28;20070;-56
2022/03/08 06:49:15;;;;;;;8.75;7.88;;;6.60;82.60;;;;;;4970800;28;20031;-55
2022/03/08 06:51:41;;;;;;;11.68;8.43;;;6.30;78.20;;;;;;4971317;28;20034;-58
2022/03/08 06:54:08;;;;;;;7.50;6.80;;;6.00;82.20;;;;;;4971707;28;20034;-57
2022/03/08 06:56:34;;;;;;;8.40;7.70;;;6.20;88.20;;;;;;4968407;28;20750;-57
2022/03/08 06:59:04;;;;;;;7.72;6.93;;;6.70;75.20;;;;;;4971469;28;20054;-56
2022/03/08 07:01:29;;;;;;;8.65;7.10;;;7.30;76.00;;;;;;4970477;28;20031;-57
2022/03/08 07:03:55;;;;;;;7.50;6.80;;;7.80;73.10;;;;;;4971838;28;20038;-56
2022/03/08 07:06:21;;;;;;;6.95;6.13;;;8.70;68.90;;;;;;4970850;28;20372;-56
2022/03/08 07:08:47;;;;;;;7.03;6.38;;;9.10;62.20;;;;;;4972159;28;20022;-57
2022/03/08 07:11:13;;;;;;;6.90;6.30;;;9.40;63.20;;;;;;4970688;28;20062;-56
2022/03/08 07:13:39;;;;;;;5.82;5.32;;;10.10;63.80;;;;;;4968649;28;20053;-55
2022/03/08 07:16:05;;;;;;;5.75;5.25;;;10.50;58.50;;;;;;4970864;28;21440;-57
2022/03/08 07:18:31;;;;;;;5.75;5.10;;;11.00;57.20;;;;;;4970574;28;20121;-56
2022/03/08 07:20:56;;;;;;;5.50;5.00;;;11.90;57.20;;;;;;4970767;28;20389;-56
2022/03/08 07:23:22;;;;;;;6.55;4.88;;;12.40;54.80;;;;;;4970775;28;20038;-58
2022/03/08 07:25:48;;;;;;;8.23;4.97;;;12.50;52.80;;;;;;4970941;28;20038;-58
2022/03/08 07:28:14;;;;;;;4.88;4.47;;;12.40;52.40;;;;;;4969982;28;20420;-57
2022/03/08 07:30:40;;;;;;;5.53;5.03;;;12.30;53.20;;;;;;4969532;28;20494;-57
2022/03/08 07:33:05;;;;;;;5.95;5.45;;;12.50;52.20;;;;;;4970836;28;20482;-57
2022/03/08 07:35:31;;;;;;;5.70;5.13;;;12.10;52.40;;;;;;4971186;28;20106;-58
2022/03/08 07:37:57;;;;;;;6.40;5.80;;;12.20;52.90;;;;;;4970723;28;20693;-57
2022/03/08 07:40:22;;;;;;;5.88;5.38;;;12.40;51.90;;;;;;4969886;28;20031;-57
2022/03/08 07:42:48;;;;;;;6.82;6.22;;;12.70;51.70;;;;;;4970809;28;20019;-57
2022/03/08 07:45:14;;;;;;;6.53;5.93;;;13.00;51.30;;;;;;4969662;28;20022;-56
2022/03/08 07:47:39;;;;;;;6.57;5.85;;;13.70;50.00;;;;;;4971466;28;20528;-54
2022/03/08 07:50:06;;;;;;;6.25;5.60;;;14.50;47.70;;;;;;4970038;28;20401;-54
2022/03/08 07:52:32;;;;;;;5.90;5.40;;;15.30;46.80;;;;;;4969568;28;20541;-56
2022/03/08 07:54:57;;;;;;;6.30;5.80;;;15.20;46.40;;;;;;4970830;28;20031;-54
2022/03/08 07:57:23;;;;;;;6.15;5.40;;;15.60;46.00;;;;;;4969817;28;20045;-54
2022/03/08 07:59:49;;;;;;;6.95;6.22;;;15.70;45.30;;;;;;4969242;28;20134;-54
2022/03/08 08:02:14;;;;;;;7.32;6.72;;;15.50;45.40;;;;;;4968561;28;20027;-53
2022/03/08 08:04:40;;;;;;;8.32;7.45;;;15.90;44.60;;;;;;4970333;28;20382;-55
2022/03/08 08:07:06;;;;;;;9.68;7.28;;;16.20;44.40;;;;;;4970421;28;20426;-56
2022/03/08 08:09:32;;;;;;;8.32;7.53;;;16.70;44.40;;;;;;4969602;28;20490;-56
2022/03/08 08:11:58;;;;;;;7.68;7.07;;;17.50;43.10;;;;;;4969932;28;20642;-55
2022/03/08 08:14:24;;;;;;;8.20;7.50;;;18.10;41.30;;;;;;4969156;28;20031;-57
2022/03/08 08:16:50;;;;;;;7.50;6.80;;;18.50;41.60;;;;;;4969345;28;20086;-56
2022/03/08 08:19:16;;;;;;;7.70;6.95;;;19.00;40.20;;;;;;4968331;28;20043;-56
2022/03/08 08:21:42;;;;;;;7.40;6.80;;;19.40;38.30;;;;;;4968727;28;20034;-56
2022/03/08 08:24:08;;;;;;;9.38;8.57;;;19.40;38.90;;;;;;4969645;28;20618;-55
2022/03/08 08:26:34;;;;;;;8.02;6.90;;;19.60;38.40;;;;;;4969980;28;20058;-54
2022/03/08 08:28:59;;;;;;;8.90;8.20;;;19.40;38.40;;;;;;4969444;28;20035;-54
2022/03/08 08:31:28;;;;;;;8.88;8.07;;;18.90;38.90;;;;;;4969467;28;20046;-55
2022/03/08 08:33:54;;;;;;;8.98;8.18;;;18.40;40.20;;;;;;4969854;28;20039;-54
2022/03/08 08:36:20;;;;;;;17.48;8.57;;;18.40;40.60;;;;;;4969210;28;20118;-55
2022/03/08 08:38:46;;;;;;;9.68;8.35;;;18.50;40.40;;;;;;4969943;28;20121;-54
2022/03/08 08:41:11;;;;;;;8.27;7.50;;;19.00;39.70;;;;;;4970299;28;20565;-54
2022/03/08 08:43:37;;;;;;;9.52;8.80;;;19.40;39.40;;;;;;4968989;28;20035;-55
2022/03/08 08:46:03;;;;;;;8.57;7.88;;;19.60;38.70;;;;;;4969861;28;20485;-56
2022/03/08 08:48:29;;;;;;;9.75;8.95;;;19.50;38.80;;;;;;4969343;28;20074;-55
2022/03/08 08:50:55;;;;;;;9.57;8.88;;;19.80;38.00;;;;;;4969371;28;20030;-54
2022/03/08 08:53:22;;;;;;;10.07;9.35;;;20.10;37.60;;;;;;4972502;28;20033;-53
2022/03/08 08:55:48;;;;;;;10.23;9.43;;;19.90;36.50;;;;;;4973271;28;20038;-55
2022/03/08 08:58:14;;;;;;;9.70;8.80;;;19.40;38.10;;;;;;4987798;28;20031;-55
2022/03/08 09:00:40;;;;;;;10.02;9.23;;;19.70;37.40;;;;;;4971919;28;20043;-54
2022/03/08 09:03:10;;;;;;;8.00;7.40;;;20.60;36.70;;;;;;4973199;28;20070;-54
2022/03/08 09:05:36;;;;;;;10.18;9.18;;;21.30;36.30;;;;;;4973552;28;20405;-54
2022/03/08 09:08:02;;;;;;;9.90;8.95;;;20.70;37.20;;;;;;4972401;28;20038;-55
2022/03/08 09:10:28;;;;;;;8.77;8.07;;;19.90;38.80;;;;;;4972786;28;20023;-54
2022/03/08 09:12:53;;;;;;;9.40;8.70;;;20.10;38.70;;;;;;4972207;28;20031;-55
2022/03/08 09:15:20;;;;;;;9.65;8.85;;;19.90;38.70;;;;;;4972890;28;20061;-55
2022/03/08 09:17:46;;;;;;;8.23;7.63;;;19.80;39.50;;;;;;4972791;28;20027;-55
2022/03/08 09:20:13;;;;;;;8.20;7.45;;;20.40;39.50;;;;;;4973064;28;20391;-54
2022/03/08 09:22:39;;;;;;;9.32;8.52;;;21.00;37.90;;;;;;4972190;28;20085;-55
2022/03/08 09:25:06;;;;;;;9.73;8.73;;;20.60;37.30;;;;;;4973248;28;20066;-55
2022/03/08 09:27:34;;;;;;;8.63;7.75;;;21.10;37.00;;;;;;4972349;28;20040;-56
2022/03/08 09:30:06;;;;;;;7.93;7.22;;;21.10;37.00;;;;;;4972576;28;20081;-53
2022/03/08 09:32:32;;;;;;;8.38;7.68;;;21.00;37.00;;;;;;4973184;28;20022;-54
2022/03/08 09:34:58;;;;;;;7.00;6.47;;;20.80;36.00;;;;;;4972881;28;20038;-55
2022/03/08 09:37:23;;;;;;;7.97;7.38;;;20.80;35.50;;;;;;4972915;28;20500;-55
2022/03/08 09:39:49;;;;;;;8.70;7.90;;;21.40;35.90;;;;;;4972035;28;20038;-56
2022/03/08 09:42:15;;;;;;;8.95;7.72;;;21.40;36.60;;;;;;4972650;28;20039;-54
2022/03/08 09:44:41;;;;;;;7.50;6.90;;;20.90;37.50;;;;;;4971384;28;20446;-53
2022/03/08 09:47:07;;;;;;;8.48;7.55;;;20.50;37.90;;;;;;4973382;28;20081;-53
2022/03/08 09:49:33;;;;;;;8.23;7.43;;;20.30;37.60;;;;;;4972763;28;20038;-54
2022/03/08 09:51:58;;;;;;;9.13;8.32;;;20.00;37.20;;;;;;4971873;28;20453;-55
2022/03/08 09:54:24;;;;;;;7.82;7.22;;;20.30;36.10;;;;;;4972525;28;20039;-56
2022/03/08 09:56:50;;;;;;;6.97;6.47;;;20.50;36.80;;;;;;4972533;28;20030;-55
2022/03/08 09:59:17;;;;;;;7.88;7.22;;;20.80;37.60;;;;;;4973068;28;20031;-55
2022/03/08 10:01:44;;;;;;;9.02;7.20;;;20.70;38.60;;;;;;4970631;28;20393;-54
2022/03/08 10:04:14;;;;;;;8.55;7.75;;;20.30;38.30;;;;;;4972498;28;20043;-55
2022/03/08 10:06:42;;;;;;;7.38;6.22;;;20.10;37.80;;;;;;4972154;28;20158;-54
2022/03/08 10:09:13;;;;;;;7.90;5.90;;;20.20;36.80;;;;;;4972029;28;20030;-54
2022/03/08 10:11:39;;;;;;;6.93;6.32;;;20.60;36.40;;;;;;4972280;28;20106;-55
2022/03/08 10:14:05;;;;;;;6.93;6.32;;;20.60;36.80;;;;;;4971870;28;20063;-55
2022/03/08 10:16:52;;;;;;;6.05;5.55;;;20.80;37.60;;;;;;4971916;28;20086;-56
2022/03/08 10:19:17;;;;;;;5.82;5.32;;;21.20;35.60;;;;;;4965088;28;20417;-55
2022/03/08 10:21:47;;;;;;;6.10;5.60;;;21.00;34.90;;;;;;4986082;28;20047;-55
2022/03/08 10:24:29;;;;;;;4.97;4.57;;;20.50;34.90;;;;;;4969183;28;20649;-54
2022/03/08 10:26:57;;;;;;;6.57;5.38;;;20.20;34.60;;;;;;4971153;28;20367;-55
2022/03/08 10:29:26;;;;;;;6.05;5.45;;;19.70;35.00;;;;;;4972461;28;20023;-55
2022/03/08 10:32:19;;;;;;;5.85;5.28;;;19.20;35.80;;;;;;4971300;28;20486;-54
2022/03/08 10:34:47;;;;;;;4.93;4.53;;;19.00;35.90;;;;;;4972067;28;20093;-54
2022/03/08 10:37:20;;;;;;;6.00;5.50;;;18.90;36.10;;;;;;4970952;28;20499;-54
2022/03/08 10:40:02;;;;;;;5.05;4.63;;;18.30;35.70;;;;;;4972165;28;20042;-54
2022/03/08 10:42:30;;;;;;;4.95;4.45;;;18.60;37.30;;;;;;4970744;28;20038;-55
2022/03/08 10:45:13;;;;;;;5.20;4.68;;;18.90;37.60;;;;;;4971930;28;20034;-54
2022/03/08 10:47:45;;;;;;;6.28;5.68;;;18.70;36.40;;;;;;4971847;28;20447;-54
2022/03/08 10:50:16;;;;;;;5.32;4.82;;;18.30;37.30;;;;;;4971404;28;20133;-54
2022/03/08 10:52:43;;;;;;;;;;;18.40;37.50;;;;;;4971063;28;20058;-54
2022/03/08 10:55:13;;;;;;;5.95;5.38;;;18.50;38.60;;;;;;4971676;28;19917;-54
2022/03/08 10:57:41;;;;;;;6.10;5.57;;;18.80;38.20;;;;;;4971534;28;20081;-55
2022/03/08 11:00:11;;;;;;;6.35;5.75;;;19.30;37.70;;;;;;4971628;28;20034;-55
2022/03/08 11:02:59;;;;;;;5.63;4.97;;;19.70;35.50;;;;;;4970496;28;20031;-56
2022/03/08 11:05:27;;;;;;;6.05;5.28;;;19.10;37.50;;;;;;4960235;28;20046;-54
2022/03/08 11:07:55;;;;;;;5.97;5.47;;;18.90;37.40;;;;;;4970744;28;20494;-55
2022/03/08 11:10:21;;;;;;;6.00;5.50;;;18.90;38.20;;;;;;4969986;28;20035;-55
2022/03/08 11:12:47;;;;;;;6.00;5.45;;;18.60;37.90;;;;;;4969282;28;20030;-54
2022/03/08 11:15:15;;;;;;;6.82;6.22;;;17.60;37.90;;;;;;4969064;28;20171;-54
2022/03/08 11:17:44;;;;;;;7.68;5.93;;;17.20;39.00;;;;;;4970701;28;20157;-55
2022/03/08 11:20:11;;;;;;;7.10;6.40;;;16.60;39.40;;;;;;4970712;28;20878;-54
2022/03/08 11:22:37;;;;;;;5.70;5.03;;;16.20;41.40;;;;;;4971015;28;20063;-54
2022/03/08 11:25:06;;;;;;;6.35;5.85;;;16.40;42.60;;;;;;4985827;28;20114;-55
2022/03/08 11:27:32;;;;;;;7.18;6.45;;;16.50;41.60;;;;;;4969251;28;20035;-55
2022/03/08 11:29:58;;;;;;;7.15;5.85;;;15.90;41.10;;;;;;4971175;28;20486;-55
2022/03/08 11:32:59;;;;;;;5.82;5.28;;;16.40;43.90;;;;;;4970371;28;20039;-55
2022/03/08 11:35:57;;;;;;;6.38;5.75;;;17.20;43.80;;;;;;4968665;28;20034;-54
2022/03/08 11:38:23;;;;;;;5.60;5.10;;;17.60;42.30;;;;;;4978197;28;20031;-55
2022/03/08 11:40:50;;;;;;;6.30;5.10;;;18.00;38.70;;;;;;4970405;28;20080;-55
2022/03/08 11:43:16;;;;;;;8.00;5.63;;;18.30;39.60;;;;;;4970298;28;20109;-54
2022/03/08 11:45:42;;;;;;;6.57;5.97;;;17.90;39.20;;;;;;4970729;28;20118;-54
2022/03/08 11:48:09;;;;;;;6.07;5.53;;;17.00;38.60;;;;;;4970408;28;20054;-54
2022/03/08 11:50:45;;;;;;;5.03;4.53;;;16.00;40.10;;;;;;4971323;28;20258;-54
2022/03/08 11:53:17;;;;;;;6.38;5.78;;;15.80;42.60;;;;;;4969862;28;20027;-55
2022/03/08 11:55:46;;;;;;;6.15;5.15;;;15.10;41.80;;;;;;4969012;28;20086;-55
2022/03/08 11:58:20;;;;;;;10.13;7.07;;;14.90;42.80;;;;;;4970451;28;20510;-55
2022/03/08 12:00:55;;;;;;;5.57;5.18;;;14.60;41.90;;;;;;4970232;28;20066;-55
2022/03/08 12:03:23;;;;;;;5.95;5.13;;;14.50;41.70;;;;;;4969439;28;20082;-54
2022/03/08 12:06:01;;;;;;;4.90;4.18;;;13.80;41.80;;;;;;4969668;28;20074;-54
2022/03/08 12:08:29;;;;;;;5.78;5.00;;;12.80;44.10;;;;;;4970298;28;20080;-55
2022/03/08 12:11:13;;;;;;;5.28;4.78;;;12.10;45.00;;;;;;4969949;28;20494;-55
2022/03/08 12:14:09;;;;;;;5.00;4.40;;;11.60;46.00;;;;;;4970158;28;20039;-54
2022/03/08 12:16:39;;;;;;;5.82;4.93;;;12.00;47.50;;;;;;4969330;28;20186;-54
2022/03/08 12:19:05;;;;;;;4.40;4.00;;;11.70;46.10;;;;;;4970353;28;20069;-53
2022/03/08 12:21:34;;;;;;;5.82;5.15;;;11.80;47.60;;;;;;4966798;28;20561;-54
2022/03/08 12:24:13;;;;;;;4.60;4.20;;;11.90;47.00;;;;;;4970136;28;20026;-55
2022/03/08 12:26:51;;;;;;;5.13;4.63;;;11.80;46.40;;;;;;4968971;28;20518;-54
2022/03/08 12:29:26;;;;;;;5.45;4.35;;;11.70;45.80;;;;;;4970237;28;20023;-55
2022/03/08 12:31:58;;;;;;;4.95;4.38;;;11.90;47.50;;;;;;4968034;28;20110;-55
2022/03/08 12:34:35;;;;;;;4.43;4.03;;;12.20;46.00;;;;;;4969554;28;20101;-57
2022/03/08 12:37:23;;;;;;;4.53;3.95;;;12.40;45.70;;;;;;4969217;28;20022;-55
2022/03/08 12:39:53;;;;;;;5.53;3.60;;;12.50;44.40;;;;;;4969155;28;20023;-57
2022/03/08 12:42:42;;;;;;;4.53;3.17;;;12.70;45.20;;;;;;4969743;28;20042;-57
2022/03/08 12:45:13;;;;;;;5.20;4.07;;;12.60;43.20;;;;;;4970116;28;20626;-56
2022/03/08 12:47:40;;;;;;;4.22;3.28;;;13.00;44.60;;;;;;4970175;28;20479;-57
2022/03/08 12:50:11;;;;;;;3.80;3.40;;;13.20;42.50;;;;;;4969258;28;20435;-56
2022/03/08 12:52:40;;;;;;;4.45;3.30;;;13.00;41.20;;;;;;4968843;28;20026;-57
2022/03/08 12:55:09;;;;;;;4.10;2.63;;;13.10;41.40;;;;;;4967486;28;20054;-57
2022/03/08 12:57:47;;;;;;;8.93;3.15;;;13.40;42.00;;;;;;4969258;28;20506;-58
2022/03/08 13:00:26;;;;;;;7.93;6.22;;;13.30;41.30;;;;;;4984365;28;20070;-57
2022/03/08 13:02:52;;;;;;;7.63;5.55;;;13.40;41.30;;;;;;4967947;28;20030;-56
2022/03/08 13:05:24;;;;;;;4.78;3.72;;;13.70;40.40;;;;;;4970112;28;20102;-56
2022/03/08 13:07:51;;;;;;;24.13;12.00;;;13.80;40.20;;;;;;4968654;28;20031;-57
2022/03/08 13:10:17;;;;;;;8.55;6.05;;;13.70;41.80;;;;;;4969336;28;20058;-56